首页
METAR-TAF:

METAR-TAF

机场 :

巴伦西亚, 委内瑞拉

纬度: 10-10N, 经度: 067-56W, 海拔: 430米

当前天气观测

该预报发布于47分钟前的01:00 UTC
温度 27°C
湿度 70%
气压 1012 hPa
能见度10公里或以上
多云层高于1600英尺

METAR: SVVA 250100Z /////KT 9999 BKN016 27/21 Q1012

时间: 21:47 (01:47 UTC)

预报

该预报发布于14小时和47分钟前的11:00 UTC
预报有效从23日的 12点(UTC)到 24日的 12点(UTC)
风速3节,风向
能见度10公里或以上
多云层高于1600英尺
短暂存在
从 23日的 16点(UTC)到 23日的 20点(UTC)
风速4节,风向
能见度10公里或以上
多云层高于1600英尺
短暂存在
从 23日的 23点(UTC)到 24日的 03点(UTC)
风速6节,风向南转西南
能見度: 9000
多云层高于1600英尺
毛毛雨,

TAF: SVVA 231100Z 2312/2412 17003KT 9999 BKN016 TX31/2318 TN21/2409 TEMPO 2316/2320 09004KT 9999 BKN016 TEMPO 2323/2403 21006KT 9000 DZ BKN016

超过4000个机场的气象观测和天气预报(METAR&TAF报告)。

可查询的气象台以黄色和红色小点在地图上表示。

将鼠标移到小点上方,可查看气象台名称。

然后点击查看天气观测和预报。

如需切换地图:点击带黑十字的绿色按钮放大地图;点击带横线的绿色按钮缩小地图;或者点击绿色箭头查看邻近地区的地图。


METAR-TAF: